Petitcodiac, Canada
Current Conditions -  °F | °C
As of 2:12 AM on Thursday 27 Nov 2014 (Local Time) from CYQM Reporting Station
Light Snow Light Snow  
Wind Chill: 19°   Ceiling: 400
Heat Index: 32°   Visibility: 0.75mi
Dew Point: 30°   Wind: 23mph
Humidity: 93%   Direction: 40°NE
Pressure: 29.82"   Gusts: 31mph
Location:  45.93°N, 65.17°W
Report Text: CYQM 270612Z 04020G27KT 3/4SM R06/5000FT/D R29/5500VP6000FT/D -SNPL OVC004 M00/M01 A2982 RMK SF8 PRESFR SLP101
Loading
Personal Weather Stations






























Interactive Weather Map New forecast layout! Learn more

10-Day Weather Forecast

Advertisements
Track Severe Weather on mobile